sensor_id;sensor_type;location;lat;lon;timestamp;temperature;humidity
70068;DHT22;57425;51.616;6.680;2023-03-01T00:01:33;2.80;75.30
70068;DHT22;57425;51.616;6.680;2023-03-01T00:03:58;2.70;75.20
70068;DHT22;57425;51.616;6.680;2023-03-01T00:06:24;2.80;75.20
70068;DHT22;57425;51.616;6.680;2023-03-01T00:08:50;2.80;75.20
70068;DHT22;57425;51.616;6.680;2023-03-01T00:13:42;2.70;75.00
70068;DHT22;57425;51.616;6.680;2023-03-01T00:16:09;2.70;75.10
70068;DHT22;57425;51.616;6.680;2023-03-01T00:18:35;2.70;75.10
70068;DHT22;57425;51.616;6.680;2023-03-01T00:21:01;2.70;75.10
70068;DHT22;57425;51.616;6.680;2023-03-01T00:23:26;2.70;75.10
70068;DHT22;57425;51.616;6.680;2023-03-01T00:25:52;2.60;75.00
70068;DHT22;57425;51.616;6.680;2023-03-01T00:28:18;2.70;75.00
70068;DHT22;57425;51.616;6.680;2023-03-01T00:30:44;2.60;74.90
70068;DHT22;57425;51.616;6.680;2023-03-01T00:33:10;2.60;74.90
70068;DHT22;57425;51.616;6.680;2023-03-01T00:35:35;2.60;74.90
70068;DHT22;57425;51.616;6.680;2023-03-01T00:38:01;2.60;74.90
70068;DHT22;57425;51.616;6.680;2023-03-01T00:40:28;2.60;74.90
70068;DHT22;57425;51.616;6.680;2023-03-01T00:42:53;2.60;74.90
70068;DHT22;57425;51.616;6.680;2023-03-01T00:45:19;2.50;74.90
70068;DHT22;57425;51.616;6.680;2023-03-01T00:47:44;2.50;74.80
70068;DHT22;57425;51.616;6.680;2023-03-01T00:50:10;2.50;74.90
70068;DHT22;57425;51.616;6.680;2023-03-01T00:55:02;2.50;74.40
70068;DHT22;57425;51.616;6.680;2023-03-01T00:57:28;2.50;74.90
70068;DHT22;57425;51.616;6.680;2023-03-01T00:59:53;2.50;74.90
70068;DHT22;57425;51.616;6.680;2023-03-01T01:02:19;2.50;74.80
70068;DHT22;57425;51.616;6.680;2023-03-01T01:04:45;2.40;74.80
70068;DHT22;57425;51.616;6.680;2023-03-01T01:07:11;2.40;74.80
70068;DHT22;57425;51.616;6.680;2023-03-01T01:09:42;2.40;74.80
70068;DHT22;57425;51.616;6.680;2023-03-01T01:12:08;2.40;74.80
70068;DHT22;57425;51.616;6.680;2023-03-01T01:14:34;2.40;74.70
70068;DHT22;57425;51.616;6.680;2023-03-01T01:17:00;2.40;74.80
70068;DHT22;57425;51.616;6.680;2023-03-01T01:19:25;2.30;74.80
70068;DHT22;57425;51.616;6.680;2023-03-01T01:21:51;2.30;74.70
70068;DHT22;57425;51.616;6.680;2023-03-01T01:24:17;2.30;74.70
70068;DHT22;57425;51.616;6.680;2023-03-01T01:26:42;2.30;74.70
70068;DHT22;57425;51.616;6.680;2023-03-01T01:29:08;2.30;74.70
70068;DHT22;57425;51.616;6.680;2023-03-01T01:31:34;2.30;74.70
70068;DHT22;57425;51.616;6.680;2023-03-01T01:34:01;2.40;74.80
70068;DHT22;57425;51.616;6.680;2023-03-01T01:36:26;2.30;74.70
70068;DHT22;57425;51.616;6.680;2023-03-01T01:38:52;2.20;75.20
70068;DHT22;57425;51.616;6.680;2023-03-01T01:41:18;2.20;74.70
70068;DHT22;57425;51.616;6.680;2023-03-01T01:43:45;2.20;74.60
70068;DHT22;57425;51.616;6.680;2023-03-01T01:46:28;2.20;74.60
70068;DHT22;57425;51.616;6.680;2023-03-01T01:48:58;2.20;74.60
70068;DHT22;57425;51.616;6.680;2023-03-01T01:51:28;2.20;74.50
70068;DHT22;57425;51.616;6.680;2023-03-01T01:54:04;2.10;74.50
70068;DHT22;57425;51.616;6.680;2023-03-01T01:56:31;2.20;74.50
70068;DHT22;57425;51.616;6.680;2023-03-01T01:58:56;2.10;74.40
70068;DHT22;57425;51.616;6.680;2023-03-01T02:01:22;2.30;74.50
70068;DHT22;57425;51.616;6.680;2023-03-01T02:03:48;2.10;74.40
70068;DHT22;57425;51.616;6.680;2023-03-01T02:06:19;2.10;74.40
70068;DHT22;57425;51.616;6.680;2023-03-01T02:08:47;2.10;74.40
70068;DHT22;57425;51.616;6.680;2023-03-01T02:11:13;2.10;74.40
70068;DHT22;57425;51.616;6.680;2023-03-01T02:13:42;2.10;74.30
70068;DHT22;57425;51.616;6.680;2023-03-01T02:16:08;2.00;74.30
70068;DHT22;57425;51.616;6.680;2023-03-01T02:18:34;2.00;74.20
70068;DHT22;57425;51.616;6.680;2023-03-01T02:23:25;2.00;74.20
70068;DHT22;57425;51.616;6.680;2023-03-01T02:25:58;2.00;74.20
70068;DHT22;57425;51.616;6.680;2023-03-01T02:28:38;2.00;74.20
70068;DHT22;57425;51.616;6.680;2023-03-01T02:36:15;2.00;73.30
70068;DHT22;57425;51.616;6.680;2023-03-01T02:38:42;2.00;73.90
70068;DHT22;57425;51.616;6.680;2023-03-01T02:41:08;2.00;73.90
70068;DHT22;57425;51.616;6.680;2023-03-01T02:43:35;1.90;73.80
70068;DHT22;57425;51.616;6.680;2023-03-01T02:46:05;1.90;73.90
70068;DHT22;57425;51.616;6.680;2023-03-01T02:48:41;1.90;73.80
70068;DHT22;57425;51.616;6.680;2023-03-01T02:56:11;1.90;73.80
70068;DHT22;57425;51.616;6.680;2023-03-01T02:58:39;1.90;73.80
70068;DHT22;57425;51.616;6.680;2023-03-01T03:01:13;1.90;73.70
70068;DHT22;57425;51.616;6.680;2023-03-01T03:03:41;1.90;73.60
70068;DHT22;57425;51.616;6.680;2023-03-01T03:06:07;1.90;73.60
70068;DHT22;57425;51.616;6.680;2023-03-01T03:08:33;1.80;73.50
70068;DHT22;57425;51.616;6.680;2023-03-01T03:10:58;1.80;73.40
70068;DHT22;57425;51.616;6.680;2023-03-01T03:13:24;1.80;73.40
70068;DHT22;57425;51.616;6.680;2023-03-01T03:15:56;1.80;73.40
70068;DHT22;57425;51.616;6.680;2023-03-01T03:18:22;1.80;73.50
70068;DHT22;57425;51.616;6.680;2023-03-01T03:20:51;1.80;73.50
70068;DHT22;57425;51.616;6.680;2023-03-01T03:23:18;1.80;73.40
70068;DHT22;57425;51.616;6.680;2023-03-01T03:25:44;1.80;73.40
70068;DHT22;57425;51.616;6.680;2023-03-01T03:28:09;1.70;73.40
70068;DHT22;57425;51.616;6.680;2023-03-01T03:30:36;1.80;73.50
70068;DHT22;57425;51.616;6.680;2023-03-01T03:33:05;1.70;73.50
70068;DHT22;57425;51.616;6.680;2023-03-01T03:35:31;1.70;73.50
70068;DHT22;57425;51.616;6.680;2023-03-01T03:37:58;1.70;73.40
70068;DHT22;57425;51.616;6.680;2023-03-01T03:40:32;1.70;73.40
70068;DHT22;57425;51.616;6.680;2023-03-01T03:42:58;1.70;73.40
70068;DHT22;57425;51.616;6.680;2023-03-01T03:45:24;1.70;73.40
70068;DHT22;57425;51.616;6.680;2023-03-01T03:47:49;1.60;73.20
70068;DHT22;57425;51.616;6.680;2023-03-01T03:50:15;1.60;73.20
70068;DHT22;57425;51.616;6.680;2023-03-01T03:52:41;1.60;73.30
70068;DHT22;57425;51.616;6.680;2023-03-01T03:55:07;1.60;73.30
70068;DHT22;57425;51.616;6.680;2023-03-01T03:57:39;1.60;73.20
70068;DHT22;57425;51.616;6.680;2023-03-01T04:00:05;1.60;73.20
70068;DHT22;57425;51.616;6.680;2023-03-01T04:02:44;1.60;73.30
70068;DHT22;57425;51.616;6.680;2023-03-01T04:05:10;1.60;73.30
70068;DHT22;57425;51.616;6.680;2023-03-01T04:07:36;1.60;73.20
70068;DHT22;57425;51.616;6.680;2023-03-01T04:10:05;1.50;73.20
70068;DHT22;57425;51.616;6.680;2023-03-01T04:12:32;1.60;73.20
70068;DHT22;57425;51.616;6.680;2023-03-01T04:14:59;1.50;73.10
70068;DHT22;57425;51.616;6.680;2023-03-01T04:17:25;1.60;73.10
70068;DHT22;57425;51.616;6.680;2023-03-01T04:19:50;1.50;73.60
70068;DHT22;57425;51.616;6.680;2023-03-01T04:22:16;1.40;73.10
70068;DHT22;57425;51.616;6.680;2023-03-01T04:24:43;1.50;73.20
70068;DHT22;57425;51.616;6.680;2023-03-01T04:27:09;1.50;73.20
70068;DHT22;57425;51.616;6.680;2023-03-01T04:29:34;1.40;73.20
70068;DHT22;57425;51.616;6.680;2023-03-01T04:32:00;1.50;73.20
70068;DHT22;57425;51.616;6.680;2023-03-01T04:34:25;1.40;73.10
70068;DHT22;57425;51.616;6.680;2023-03-01T04:36:52;1.40;73.10
70068;DHT22;57425;51.616;6.680;2023-03-01T04:39:17;1.40;73.10
70068;DHT22;57425;51.616;6.680;2023-03-01T04:41:43;1.40;73.00
70068;DHT22;57425;51.616;6.680;2023-03-01T04:44:08;1.40;73.00
70068;DHT22;57425;51.616;6.680;2023-03-01T04:46:34;1.40;73.00
70068;DHT22;57425;51.616;6.680;2023-03-01T04:49:00;1.40;73.00
70068;DHT22;57425;51.616;6.680;2023-03-01T04:51:25;1.40;72.90
70068;DHT22;57425;51.616;6.680;2023-03-01T04:53:51;1.40;72.80
70068;DHT22;57425;51.616;6.680;2023-03-01T04:56:16;1.30;72.70
70068;DHT22;57425;51.616;6.680;2023-03-01T04:58:43;1.40;72.70
70068;DHT22;57425;51.616;6.680;2023-03-01T05:01:10;1.40;72.70
70068;DHT22;57425;51.616;6.680;2023-03-01T05:03:41;1.40;72.70
70068;DHT22;57425;51.616;6.680;2023-03-01T05:06:07;1.30;72.70
70068;DHT22;57425;51.616;6.680;2023-03-01T05:08:33;1.30;72.60
70068;DHT22;57425;51.616;6.680;2023-03-01T05:11:00;1.30;72.60
70068;DHT22;57425;51.616;6.680;2023-03-01T05:13:26;1.30;72.60
70068;DHT22;57425;51.616;6.680;2023-03-01T05:15:55;1.30;72.60
70068;DHT22;57425;51.616;6.680;2023-03-01T05:18:21;1.30;72.70
70068;DHT22;57425;51.616;6.680;2023-03-01T05:20:54;1.20;72.60
70068;DHT22;57425;51.616;6.680;2023-03-01T05:23:21;1.20;72.60
70068;DHT22;57425;51.616;6.680;2023-03-01T05:25:47;1.20;72.60
70068;DHT22;57425;51.616;6.680;2023-03-01T05:28:12;1.20;72.70
70068;DHT22;57425;51.616;6.680;2023-03-01T05:30:39;1.20;72.60
70068;DHT22;57425;51.616;6.680;2023-03-01T05:33:05;1.20;72.50
70068;DHT22;57425;51.616;6.680;2023-03-01T05:35:35;1.20;72.40
70068;DHT22;57425;51.616;6.680;2023-03-01T05:38:01;1.20;72.50
70068;DHT22;57425;51.616;6.680;2023-03-01T05:40:26;1.20;72.40
70068;DHT22;57425;51.616;6.680;2023-03-01T05:42:55;1.20;72.40
70068;DHT22;57425;51.616;6.680;2023-03-01T05:45:22;1.20;72.50
70068;DHT22;57425;51.616;6.680;2023-03-01T05:47:48;1.10;72.40
70068;DHT22;57425;51.616;6.680;2023-03-01T05:50:15;1.10;72.40
70068;DHT22;57425;51.616;6.680;2023-03-01T05:52:50;1.10;72.40
70068;DHT22;57425;51.616;6.680;2023-03-01T05:55:17;1.10;72.30
70068;DHT22;57425;51.616;6.680;2023-03-01T05:57:43;1.10;72.40
70068;DHT22;57425;51.616;6.680;2023-03-01T06:00:09;1.10;72.30
70068;DHT22;57425;51.616;6.680;2023-03-01T06:02:35;1.10;72.30
70068;DHT22;57425;51.616;6.680;2023-03-01T06:05:01;1.10;72.30
70068;DHT22;57425;51.616;6.680;2023-03-01T06:07:27;1.10;72.30
70068;DHT22;57425;51.616;6.680;2023-03-01T06:09:53;1.10;72.30
70068;DHT22;57425;51.616;6.680;2023-03-01T06:12:18;1.00;72.20
70068;DHT22;57425;51.616;6.680;2023-03-01T06:14:44;1.00;72.20
70068;DHT22;57425;51.616;6.680;2023-03-01T06:17:10;1.00;72.10
70068;DHT22;57425;51.616;6.680;2023-03-01T06:19:36;1.00;72.60
70068;DHT22;57425;51.616;6.680;2023-03-01T06:22:01;1.10;72.10
70068;DHT22;57425;51.616;6.680;2023-03-01T06:24:27;1.00;72.00
70068;DHT22;57425;51.616;6.680;2023-03-01T06:26:53;1.00;71.90
70068;DHT22;57425;51.616;6.680;2023-03-01T06:29:20;1.00;71.90
70068;DHT22;57425;51.616;6.680;2023-03-01T06:31:48;1.00;72.00
70068;DHT22;57425;51.616;6.680;2023-03-01T06:34:13;1.00;72.00
70068;DHT22;57425;51.616;6.680;2023-03-01T06:36:39;1.00;72.70
70068;DHT22;57425;51.616;6.680;2023-03-01T06:39:04;1.00;72.00
70068;DHT22;57425;51.616;6.680;2023-03-01T06:41:30;1.00;71.90
70068;DHT22;57425;51.616;6.680;2023-03-01T06:43:56;0.90;71.80
70068;DHT22;57425;51.616;6.680;2023-03-01T06:46:21;0.90;71.70
70068;DHT22;57425;51.616;6.680;2023-03-01T06:48:47;0.90;71.70
70068;DHT22;57425;51.616;6.680;2023-03-01T06:51:12;0.90;71.70
70068;DHT22;57425;51.616;6.680;2023-03-01T06:53:38;0.90;71.70
70068;DHT22;57425;51.616;6.680;2023-03-01T06:56:03;0.90;72.20
70068;DHT22;57425;51.616;6.680;2023-03-01T06:58:30;0.90;71.70
70068;DHT22;57425;51.616;6.680;2023-03-01T07:00:56;0.90;71.70
70068;DHT22;57425;51.616;6.680;2023-03-01T07:03:21;0.90;71.70
70068;DHT22;57425;51.616;6.680;2023-03-01T07:05:51;0.90;71.70
70068;DHT22;57425;51.616;6.680;2023-03-01T07:08:19;0.90;71.70
70068;DHT22;57425;51.616;6.680;2023-03-01T07:10:44;0.90;71.70
70068;DHT22;57425;51.616;6.680;2023-03-01T07:13:10;0.90;71.70
70068;DHT22;57425;51.616;6.680;2023-03-01T07:15:35;0.80;71.70
70068;DHT22;57425;51.616;6.680;2023-03-01T07:18:01;0.90;71.80
70068;DHT22;57425;51.616;6.680;2023-03-01T07:20:27;0.80;71.70
70068;DHT22;57425;51.616;6.680;2023-03-01T07:22:53;0.80;71.70
70068;DHT22;57425;51.616;6.680;2023-03-01T07:25:18;0.80;71.80
70068;DHT22;57425;51.616;6.680;2023-03-01T07:27:48;0.80;71.80
70068;DHT22;57425;51.616;6.680;2023-03-01T07:30:13;0.80;71.80
70068;DHT22;57425;51.616;6.680;2023-03-01T07:32:39;0.80;71.80
70068;DHT22;57425;51.616;6.680;2023-03-01T07:35:04;0.80;71.80
70068;DHT22;57425;51.616;6.680;2023-03-01T07:37:30;0.80;71.90
70068;DHT22;57425;51.616;6.680;2023-03-01T07:39:55;0.80;72.10
70068;DHT22;57425;51.616;6.680;2023-03-01T07:42:21;0.80;71.80
70068;DHT22;57425;51.616;6.680;2023-03-01T07:44:46;0.80;71.90
70068;DHT22;57425;51.616;6.680;2023-03-01T07:47:12;0.80;71.90
70068;DHT22;57425;51.616;6.680;2023-03-01T07:49:37;0.80;71.80
70068;DHT22;57425;51.616;6.680;2023-03-01T07:52:03;0.80;71.90
70068;DHT22;57425;51.616;6.680;2023-03-01T07:54:28;0.80;71.90
70068;DHT22;57425;51.616;6.680;2023-03-01T07:56:55;0.80;71.90
70068;DHT22;57425;51.616;6.680;2023-03-01T07:59:22;0.80;72.00
70068;DHT22;57425;51.616;6.680;2023-03-01T08:01:54;0.80;72.00
70068;DHT22;57425;51.616;6.680;2023-03-01T08:04:20;0.80;72.10
70068;DHT22;57425;51.616;6.680;2023-03-01T08:06:45;0.80;72.10
70068;DHT22;57425;51.616;6.680;2023-03-01T08:09:11;0.80;72.10
70068;DHT22;57425;51.616;6.680;2023-03-01T08:11:36;0.80;72.70
70068;DHT22;57425;51.616;6.680;2023-03-01T08:14:02;0.80;72.20
70068;DHT22;57425;51.616;6.680;2023-03-01T08:16:28;0.80;72.20
70068;DHT22;57425;51.616;6.680;2023-03-01T08:18:54;0.80;72.20
70068;DHT22;57425;51.616;6.680;2023-03-01T08:21:22;0.80;72.20
70068;DHT22;57425;51.616;6.680;2023-03-01T08:23:47;0.80;72.20
70068;DHT22;57425;51.616;6.680;2023-03-01T08:26:17;0.80;72.20
70068;DHT22;57425;51.616;6.680;2023-03-01T08:28:43;0.80;72.20
70068;DHT22;57425;51.616;6.680;2023-03-01T08:33:45;0.90;72.20
70068;DHT22;57425;51.616;6.680;2023-03-01T08:36:16;0.80;72.20
70068;DHT22;57425;51.616;6.680;2023-03-01T08:38:42;0.80;72.30
70068;DHT22;57425;51.616;6.680;2023-03-01T08:41:07;0.80;72.30
70068;DHT22;57425;51.616;6.680;2023-03-01T08:43:33;0.80;72.30
70068;DHT22;57425;51.616;6.680;2023-03-01T08:45:58;0.90;72.40
70068;DHT22;57425;51.616;6.680;2023-03-01T08:48:24;0.90;72.40
70068;DHT22;57425;51.616;6.680;2023-03-01T08:50:50;0.90;72.40
70068;DHT22;57425;51.616;6.680;2023-03-01T08:53:15;0.90;72.40
70068;DHT22;57425;51.616;6.680;2023-03-01T08:55:41;0.90;72.40
70068;DHT22;57425;51.616;6.680;2023-03-01T08:58:06;0.90;72.40
70068;DHT22;57425;51.616;6.680;2023-03-01T09:00:32;0.90;72.60
70068;DHT22;57425;51.616;6.680;2023-03-01T09:03:00;0.90;72.50
70068;DHT22;57425;51.616;6.680;2023-03-01T09:05:26;0.90;72.60
70068;DHT22;57425;51.616;6.680;2023-03-01T09:07:52;0.90;72.60
70068;DHT22;57425;51.616;6.680;2023-03-01T09:10:17;1.00;72.60
70068;DHT22;57425;51.616;6.680;2023-03-01T09:12:43;0.90;72.60
70068;DHT22;57425;51.616;6.680;2023-03-01T09:15:09;1.00;72.70
70068;DHT22;57425;51.616;6.680;2023-03-01T09:17:34;1.00;72.70
70068;DHT22;57425;51.616;6.680;2023-03-01T09:20:00;1.00;72.80
70068;DHT22;57425;51.616;6.680;2023-03-01T09:22:25;1.00;72.80
70068;DHT22;57425;51.616;6.680;2023-03-01T09:24:51;1.00;72.80
70068;DHT22;57425;51.616;6.680;2023-03-01T09:27:16;1.00;72.80
70068;DHT22;57425;51.616;6.680;2023-03-01T09:29:44;1.00;72.80
70068;DHT22;57425;51.616;6.680;2023-03-01T09:32:10;1.00;72.90
70068;DHT22;57425;51.616;6.680;2023-03-01T09:34:35;1.10;73.00
70068;DHT22;57425;51.616;6.680;2023-03-01T09:37:23;1.10;73.00
70068;DHT22;57425;51.616;6.680;2023-03-01T09:39:49;1.10;73.00
70068;DHT22;57425;51.616;6.680;2023-03-01T09:42:14;1.10;73.00
70068;DHT22;57425;51.616;6.680;2023-03-01T09:47:12;1.20;73.20
70068;DHT22;57425;51.616;6.680;2023-03-01T09:49:40;1.20;73.10
70068;DHT22;57425;51.616;6.680;2023-03-01T09:54:41;1.20;73.30
70068;DHT22;57425;51.616;6.680;2023-03-01T10:02:05;1.30;73.30
70068;DHT22;57425;51.616;6.680;2023-03-01T10:04:49;1.30;73.30
70068;DHT22;57425;51.616;6.680;2023-03-01T10:07:17;1.30;73.30
70068;DHT22;57425;51.616;6.680;2023-03-01T10:09:46;1.40;73.40
70068;DHT22;57425;51.616;6.680;2023-03-01T10:12:13;1.40;73.30
70068;DHT22;57425;51.616;6.680;2023-03-01T10:17:30;1.40;73.40
70068;DHT22;57425;51.616;6.680;2023-03-01T10:19:58;1.50;73.40
70068;DHT22;57425;51.616;6.680;2023-03-01T10:22:35;1.50;73.40
70068;DHT22;57425;51.616;6.680;2023-03-01T10:25:02;1.50;73.40
70068;DHT22;57425;51.616;6.680;2023-03-01T10:30:09;1.50;73.40
70068;DHT22;57425;51.616;6.680;2023-03-01T10:32:37;1.50;73.50
70068;DHT22;57425;51.616;6.680;2023-03-01T10:35:16;1.50;73.40
70068;DHT22;57425;51.616;6.680;2023-03-01T10:40:27;1.60;73.50
70068;DHT22;57425;51.616;6.680;2023-03-01T10:42:53;1.60;73.50
70068;DHT22;57425;51.616;6.680;2023-03-01T10:45:35;1.70;73.60
70068;DHT22;57425;51.616;6.680;2023-03-01T10:50:30;1.70;73.60
70068;DHT22;57425;51.616;6.680;2023-03-01T10:52:58;1.70;73.60
70068;DHT22;57425;51.616;6.680;2023-03-01T10:55:25;1.80;73.70
70068;DHT22;57425;51.616;6.680;2023-03-01T10:58:05;1.70;73.70
70068;DHT22;57425;51.616;6.680;2023-03-01T11:00:31;1.80;73.80
70068;DHT22;57425;51.616;6.680;2023-03-01T11:03:13;1.80;73.80
70068;DHT22;57425;51.616;6.680;2023-03-01T11:08:35;1.90;73.80
70068;DHT22;57425;51.616;6.680;2023-03-01T11:11:06;1.90;73.80
70068;DHT22;57425;51.616;6.680;2023-03-01T11:13:33;1.90;73.80
70068;DHT22;57425;51.616;6.680;2023-03-01T11:16:03;1.90;74.30
70068;DHT22;57425;51.616;6.680;2023-03-01T11:18:31;1.90;73.80
70068;DHT22;57425;51.616;6.680;2023-03-01T11:20:56;2.00;73.90
70068;DHT22;57425;51.616;6.680;2023-03-01T11:23:23;2.00;73.90
70068;DHT22;57425;51.616;6.680;2023-03-01T11:25:51;2.00;73.90
70068;DHT22;57425;51.616;6.680;2023-03-01T11:28:18;2.00;73.90
70068;DHT22;57425;51.616;6.680;2023-03-01T11:31:02;2.00;73.90
70068;DHT22;57425;51.616;6.680;2023-03-01T11:38:30;2.10;73.90
70068;DHT22;57425;51.616;6.680;2023-03-01T11:43:31;2.10;73.90
70068;DHT22;57425;51.616;6.680;2023-03-01T11:48:36;2.20;74.00
70068;DHT22;57425;51.616;6.680;2023-03-01T11:51:09;2.20;73.90
70068;DHT22;57425;51.616;6.680;2023-03-01T11:56:19;2.20;74.00
70068;DHT22;57425;51.616;6.680;2023-03-01T11:58:49;2.30;74.00
70068;DHT22;57425;51.616;6.680;2023-03-01T12:04:26;2.30;73.70
70068;DHT22;57425;51.616;6.680;2023-03-01T12:09:13;2.40;73.10
70068;DHT22;57425;51.616;6.680;2023-03-01T12:22:13;2.50;73.80
70068;DHT22;57425;51.616;6.680;2023-03-01T12:27:15;2.50;74.00
70068;DHT22;57425;51.616;6.680;2023-03-01T12:30:13;2.50;74.10
70068;DHT22;57425;51.616;6.680;2023-03-01T12:37:46;2.60;74.10
70068;DHT22;57425;51.616;6.680;2023-03-01T12:40:21;2.60;73.50
70068;DHT22;57425;51.616;6.680;2023-03-01T12:50:46;2.70;72.90
70068;DHT22;57425;51.616;6.680;2023-03-01T12:55:59;2.70;73.80
70068;DHT22;57425;51.616;6.680;2023-03-01T12:59:29;2.80;73.90
70068;DHT22;57425;51.616;6.680;2023-03-01T13:01:40;2.80;74.10
70068;DHT22;57425;51.616;6.680;2023-03-01T13:07:01;2.80;74.30
70068;DHT22;57425;51.616;6.680;2023-03-01T13:10:14;2.90;74.40
70068;DHT22;57425;51.616;6.680;2023-03-01T13:15:03;2.90;74.40
70068;DHT22;57425;51.616;6.680;2023-03-01T13:17:32;2.90;74.30
70068;DHT22;57425;51.616;6.680;2023-03-01T13:19:58;3.00;74.30
70068;DHT22;57425;51.616;6.680;2023-03-01T13:22:31;2.90;74.20
70068;DHT22;57425;51.616;6.680;2023-03-01T13:25:01;3.00;73.00
70068;DHT22;57425;51.616;6.680;2023-03-01T13:27:26;3.00;73.40
70068;DHT22;57425;51.616;6.680;2023-03-01T13:29:55;3.00;73.80
70068;DHT22;57425;51.616;6.680;2023-03-01T13:32:35;3.10;74.00
70068;DHT22;57425;51.616;6.680;2023-03-01T13:37:44;3.10;74.20
70068;DHT22;57425;51.616;6.680;2023-03-01T13:42:44;3.10;74.30
70068;DHT22;57425;51.616;6.680;2023-03-01T13:45:21;3.10;73.60
70068;DHT22;57425;51.616;6.680;2023-03-01T13:47:49;3.20;73.10
70068;DHT22;57425;51.616;6.680;2023-03-01T13:50:16;3.20;73.80
70068;DHT22;57425;51.616;6.680;2023-03-01T13:52:48;3.20;74.10
70068;DHT22;57425;51.616;6.680;2023-03-01T13:57:57;3.30;74.50
70068;DHT22;57425;51.616;6.680;2023-03-01T14:03:02;3.30;74.60
70068;DHT22;57425;51.616;6.680;2023-03-01T14:05:29;3.30;74.60
70068;DHT22;57425;51.616;6.680;2023-03-01T14:07:55;3.40;74.70
70068;DHT22;57425;51.616;6.680;2023-03-01T14:10:20;3.40;74.80
70068;DHT22;57425;51.616;6.680;2023-03-01T14:15:50;3.40;74.50
70068;DHT22;57425;51.616;6.680;2023-03-01T14:18:24;3.50;74.20
70068;DHT22;57425;51.616;6.680;2023-03-01T14:20:50;3.50;74.40
70068;DHT22;57425;51.616;6.680;2023-03-01T14:23:23;3.50;74.30
70068;DHT22;57425;51.616;6.680;2023-03-01T14:25:53;3.50;74.30
70068;DHT22;57425;51.616;6.680;2023-03-01T14:30:52;3.50;73.90
70068;DHT22;57425;51.616;6.680;2023-03-01T14:33:33;3.60;74.50
70068;DHT22;57425;51.616;6.680;2023-03-01T14:38:32;3.60;74.70
70068;DHT22;57425;51.616;6.680;2023-03-01T14:41:01;3.60;74.80
70068;DHT22;57425;51.616;6.680;2023-03-01T14:43:28;3.60;74.70
70068;DHT22;57425;51.616;6.680;2023-03-01T14:45:54;3.70;74.70
70068;DHT22;57425;51.616;6.680;2023-03-01T14:48:20;3.60;74.30
70068;DHT22;57425;51.616;6.680;2023-03-01T14:50:45;3.70;74.50
70068;DHT22;57425;51.616;6.680;2023-03-01T14:53:15;3.70;74.80
70068;DHT22;57425;51.616;6.680;2023-03-01T14:55:42;3.70;74.80
70068;DHT22;57425;51.616;6.680;2023-03-01T14:58:12;3.80;74.90
70068;DHT22;57425;51.616;6.680;2023-03-01T15:00:38;3.80;75.00
70068;DHT22;57425;51.616;6.680;2023-03-01T15:03:08;3.80;75.10
70068;DHT22;57425;51.616;6.680;2023-03-01T15:05:39;3.80;75.20
70068;DHT22;57425;51.616;6.680;2023-03-01T15:08:05;3.80;75.30
70068;DHT22;57425;51.616;6.680;2023-03-01T15:10:32;3.90;74.90
70068;DHT22;57425;51.616;6.680;2023-03-01T15:13:19;3.90;74.90
70068;DHT22;57425;51.616;6.680;2023-03-01T15:15:46;3.90;75.20
70068;DHT22;57425;51.616;6.680;2023-03-01T15:18:16;3.90;75.40
70068;DHT22;57425;51.616;6.680;2023-03-01T15:20:42;3.90;75.40
70068;DHT22;57425;51.616;6.680;2023-03-01T15:23:17;3.90;75.50
70068;DHT22;57425;51.616;6.680;2023-03-01T15:25:43;3.90;75.40
70068;DHT22;57425;51.616;6.680;2023-03-01T15:28:17;4.00;75.50
70068;DHT22;57425;51.616;6.680;2023-03-01T15:30:44;4.00;75.60
70068;DHT22;57425;51.616;6.680;2023-03-01T15:33:16;4.00;75.60
70068;DHT22;57425;51.616;6.680;2023-03-01T15:35:46;4.00;74.50
70068;DHT22;57425;51.616;6.680;2023-03-01T15:38:32;4.00;75.00
70068;DHT22;57425;51.616;6.680;2023-03-01T15:41:02;4.00;75.00
70068;DHT22;57425;51.616;6.680;2023-03-01T15:43:42;4.10;75.30
70068;DHT22;57425;51.616;6.680;2023-03-01T15:46:21;4.10;75.40
70068;DHT22;57425;51.616;6.680;2023-03-01T15:48:49;4.10;75.50
70068;DHT22;57425;51.616;6.680;2023-03-01T15:51:17;4.10;75.50
70068;DHT22;57425;51.616;6.680;2023-03-01T15:53:46;4.10;75.60
70068;DHT22;57425;51.616;6.680;2023-03-01T15:56:13;4.10;75.70
70068;DHT22;57425;51.616;6.680;2023-03-01T15:58:39;4.10;75.70
70068;DHT22;57425;51.616;6.680;2023-03-01T16:01:08;4.20;75.90
70068;DHT22;57425;51.616;6.680;2023-03-01T16:03:37;4.20;75.90
70068;DHT22;57425;51.616;6.680;2023-03-01T16:06:03;4.20;76.00
70068;DHT22;57425;51.616;6.680;2023-03-01T16:10:54;4.30;96.50
70068;DHT22;57425;51.616;6.680;2023-03-01T16:13:20;4.20;76.10
70068;DHT22;57425;51.616;6.680;2023-03-01T16:15:45;4.20;76.00
70068;DHT22;57425;51.616;6.680;2023-03-01T16:18:11;4.20;75.70
70068;DHT22;57425;51.616;6.680;2023-03-01T16:20:37;4.30;75.90
70068;DHT22;57425;51.616;6.680;2023-03-01T16:23:04;4.20;75.90
70068;DHT22;57425;51.616;6.680;2023-03-01T16:25:31;4.30;76.00
70068;DHT22;57425;51.616;6.680;2023-03-01T16:27:57;4.30;76.10
70068;DHT22;57425;51.616;6.680;2023-03-01T16:30:25;4.30;76.10
70068;DHT22;57425;51.616;6.680;2023-03-01T16:32:50;4.30;76.10
70068;DHT22;57425;51.616;6.680;2023-03-01T16:35:17;4.30;76.20
70068;DHT22;57425;51.616;6.680;2023-03-01T16:37:43;4.30;76.20
70068;DHT22;57425;51.616;6.680;2023-03-01T16:40:16;4.30;76.70
70068;DHT22;57425;51.616;6.680;2023-03-01T16:42:43;4.30;76.20
70068;DHT22;57425;51.616;6.680;2023-03-01T16:45:08;4.30;76.20
70068;DHT22;57425;51.616;6.680;2023-03-01T16:47:34;4.40;76.30
70068;DHT22;57425;51.616;6.680;2023-03-01T16:50:00;4.30;76.30
70068;DHT22;57425;51.616;6.680;2023-03-01T16:52:25;4.30;76.30
70068;DHT22;57425;51.616;6.680;2023-03-01T16:54:51;4.30;76.20
70068;DHT22;57425;51.616;6.680;2023-03-01T16:57:16;4.30;76.20
70068;DHT22;57425;51.616;6.680;2023-03-01T16:59:42;4.40;76.30
70068;DHT22;57425;51.616;6.680;2023-03-01T17:02:11;4.40;76.30
70068;DHT22;57425;51.616;6.680;2023-03-01T17:04:41;4.40;76.30
70068;DHT22;57425;51.616;6.680;2023-03-01T17:07:06;4.40;76.30
70068;DHT22;57425;51.616;6.680;2023-03-01T17:09:35;4.40;76.30
70068;DHT22;57425;51.616;6.680;2023-03-01T17:12:02;4.40;76.40
70068;DHT22;57425;51.616;6.680;2023-03-01T17:14:28;4.40;76.40
70068;DHT22;57425;51.616;6.680;2023-03-01T17:16:54;4.40;76.40
70068;DHT22;57425;51.616;6.680;2023-03-01T17:19:20;4.40;76.40
70068;DHT22;57425;51.616;6.680;2023-03-01T17:21:45;4.30;76.30
70068;DHT22;57425;51.616;6.680;2023-03-01T17:24:11;4.40;76.40
70068;DHT22;57425;51.616;6.680;2023-03-01T17:26:37;4.40;76.30
70068;DHT22;57425;51.616;6.680;2023-03-01T17:29:03;4.40;76.30
70068;DHT22;57425;51.616;6.680;2023-03-01T17:31:30;4.40;76.30
70068;DHT22;57425;51.616;6.680;2023-03-01T17:33:55;4.30;76.30
70068;DHT22;57425;51.616;6.680;2023-03-01T17:36:21;4.30;76.30
70068;DHT22;57425;51.616;6.680;2023-03-01T17:38:47;4.40;76.50
70068;DHT22;57425;51.616;6.680;2023-03-01T17:41:15;4.40;76.50
70068;DHT22;57425;51.616;6.680;2023-03-01T17:43:43;4.40;76.60
70068;DHT22;57425;51.616;6.680;2023-03-01T17:46:09;4.40;76.50